Scitico, Connecticut
Current Conditions -  °F | °C
As of 4:51 PM on Saturday 20 Dec 2014 (Local Time) from KBDL Reporting Station
Overcast Overcast  
Wind Chill: 32°   Ceiling: 3500
Heat Index: 32°   Visibility: 10mi
Dew Point: 20°   Wind: 0mph
Humidity: 61%   Direction: NA
Pressure: 30.25"   Gusts: NA
Location:  41.9843°N, 72.5534°W
Report Text: KBDL 202151Z 00000KT 10SM OVC035 00/M07 A3025 RMK AO2 SLP246 T00001067 $
Loading
Personal Weather Stations






























Interactive Weather Map New forecast layout! Learn more

10-Day Weather Forecast

Advertisements
Track Severe Weather on mobile